Time;durP1;ratioP1;P1;durP2;ratioP2;P2;SDS_P1;SDS_P2;PMS_P1;PMS_P2;Temp;Humidity;BMP_temperature;BMP_pressure;BME280_temperature;BME280_humidity;BME280_pressure;Samples;Min_cycle;Max_cycle;Signal;HPM_P1;HPM_P2
2023/12/23 00:02:23;;;;;;;13.90;7.90;;;;;;;0.29;81.73;95295.09;106307;1276;22533;-75
2023/12/23 00:04:51;;;;;;;16.70;10.10;;;;;;;0.30;81.30;95293.98;106300;1272;24271;-74
2023/12/23 00:07:19;;;;;;;13.90;9.00;;;;;;;0.30;81.04;95307.03;106231;1272;24382;-75
2023/12/23 00:09:47;;;;;;;12.40;7.60;;;;;;;0.32;80.74;95308.17;106288;1270;25432;-75
2023/12/23 00:12:15;;;;;;;13.90;7.70;;;;;;;0.33;80.70;95306.79;106236;1284;22554;-75
2023/12/23 00:14:43;;;;;;;13.40;9.10;;;;;;;0.34;80.99;95303.95;106254;1281;25432;-75
2023/12/23 00:17:11;;;;;;;14.00;8.70;;;;;;;0.40;81.25;95314.52;106335;1281;22545;-74
2023/12/23 00:19:39;;;;;;;12.40;7.90;;;;;;;0.43;80.44;95322.34;106333;1281;22538;-75
2023/12/23 00:22:07;;;;;;;16.10;9.60;;;;;;;0.44;80.27;95314.90;106254;1284;26699;-73
2023/12/23 00:24:35;;;;;;;14.30;7.60;;;;;;;0.44;80.39;95314.43;106269;1284;22667;-75
2023/12/23 00:27:03;;;;;;;12.60;7.50;;;;;;;0.42;80.55;95324.02;106241;1284;22677;-74
2023/12/23 00:29:31;;;;;;;10.80;7.10;;;;;;;0.40;80.53;95310.66;106230;1284;22556;-73
2023/12/23 00:31:59;;;;;;;12.20;7.50;;;;;;;0.38;80.82;95312.39;106085;1270;22566;-75
2023/12/23 00:34:28;;;;;;;10.90;6.80;;;;;;;0.38;81.30;95313.88;106205;1284;23444;-75
2023/12/23 00:36:56;;;;;;;11.80;6.30;;;;;;;0.38;81.65;95318.27;106081;1268;24238;-76
2023/12/23 00:39:24;;;;;;;11.90;7.50;;;;;;;0.39;81.64;95316.04;106308;1268;22550;-75
2023/12/23 00:41:52;;;;;;;11.40;7.70;;;;;;;0.37;81.67;95318.55;106373;1277;24336;-74
2023/12/23 00:44:20;;;;;;;10.70;6.90;;;;;;;0.36;81.44;95333.36;106447;1271;22547;-76
2023/12/23 00:46:48;;;;;;;13.90;7.80;;;;;;;0.34;81.48;95336.61;106670;1277;22566;-75
2023/12/23 00:49:16;;;;;;;12.20;7.50;;;;;;;0.33;81.52;95339.88;106253;1269;24295;-76
2023/12/23 00:51:44;;;;;;;11.60;7.30;;;;;;;0.32;81.65;95341.61;106183;1270;22543;-75
2023/12/23 00:54:12;;;;;;;11.10;6.30;;;;;;;0.33;82.08;95337.19;106253;1269;22609;-77
2023/12/23 00:56:40;;;;;;;10.50;7.40;;;;;;;0.54;84.34;95335.17;106289;1283;25317;-78
2023/12/23 00:59:07;;;;;;;11.00;6.40;;;;;;;0.71;84.46;95335.23;106279;1261;22582;-78
2023/12/23 01:01:35;;;;;;;11.90;6.70;;;;;;;0.74;83.25;95336.29;106552;1284;26616;-78
2023/12/23 01:04:03;;;;;;;10.40;5.90;;;;;;;0.70;82.55;95345.16;106175;1282;22551;-78
2023/12/23 01:06:32;;;;;;;11.70;6.50;;;;;;;0.66;82.42;95349.15;106091;1280;22543;-78
2023/12/23 01:09:00;;;;;;;10.20;5.40;;;;;;;0.63;82.43;95351.50;106312;1279;24217;-78
2023/12/23 01:11:27;;;;;;;11.80;6.80;;;;;;;0.63;83.25;95344.04;106258;1283;22788;-77
2023/12/23 01:13:55;;;;;;;11.70;6.70;;;;;;;0.69;82.82;95347.84;106432;1268;24286;-77
2023/12/23 01:16:25;;;;;;;9.20;5.70;;;;;;;0.64;82.62;95352.60;106200;1266;23919;-78
2023/12/23 01:18:53;;;;;;;8.30;5.50;;;;;;;0.62;81.93;95353.98;106520;1277;22574;-75
2023/12/23 01:21:21;;;;;;;11.20;6.20;;;;;;;0.52;80.76;95359.86;106237;1284;24319;-77
2023/12/23 01:23:49;;;;;;;10.50;6.20;;;;;;;0.43;80.79;95367.08;106241;1274;23897;-74
2023/12/23 01:26:17;;;;;;;9.60;6.60;;;;;;;0.38;80.35;95360.21;106287;1273;22543;-75
2023/12/23 01:28:45;;;;;;;11.20;5.40;;;;;;;0.34;80.24;95355.65;106260;1272;22551;-76
2023/12/23 01:31:13;;;;;;;6.70;4.90;;;;;;;0.33;80.82;95350.46;106272;1278;24286;-76
2023/12/23 01:33:42;;;;;;;9.20;5.90;;;;;;;0.35;80.48;95354.56;106244;1270;25435;-75
2023/12/23 01:36:10;;;;;;;9.50;5.00;;;;;;;0.36;80.02;95356.14;106055;1283;22591;-76
2023/12/23 01:38:38;;;;;;;12.60;8.20;;;;;;;0.36;79.55;95347.82;106212;1271;23414;-74
2023/12/23 01:41:06;;;;;;;9.80;6.20;;;;;;;0.34;79.39;95358.39;106407;1273;22988;-74
2023/12/23 01:43:34;;;;;;;8.10;5.10;;;;;;;0.34;79.41;95373.08;106514;1271;25417;-75
2023/12/23 01:46:02;;;;;;;9.10;5.20;;;;;;;0.31;79.54;95381.39;106238;1283;24471;-76
2023/12/23 01:48:36;;;;;;;10.70;5.60;;;;;;;0.31;79.16;95379.13;106258;1283;22554;-75
2023/12/23 01:51:04;;;;;;;9.10;5.60;;;;;;;0.30;79.41;95380.84;106282;1283;25439;-75
2023/12/23 01:53:33;;;;;;;7.70;5.20;;;;;;;0.29;79.53;95378.80;106334;1277;25551;-75
2023/12/23 01:56:01;;;;;;;10.60;5.30;;;;;;;0.32;79.78;95380.10;106276;1280;22561;-74
2023/12/23 01:58:29;;;;;;;8.30;7.40;;;;;;;0.33;80.02;95368.92;106246;1270;25273;-75
2023/12/23 02:00:58;;;;;;;9.90;7.10;;;;;;;0.34;79.64;95370.05;106203;1273;22600;-76
2023/12/23 02:03:28;;;;;;;9.60;6.40;;;;;;;0.34;79.47;95370.55;106244;1277;22543;-75
2023/12/23 02:05:56;;;;;;;9.10;5.80;;;;;;;0.32;78.96;95379.77;106166;1276;25415;-75
2023/12/23 02:08:25;;;;;;;8.50;5.60;;;;;;;0.32;78.91;95385.30;106353;1273;25313;-74
2023/12/23 02:11:05;;;;;;;9.60;5.60;;;;;;;0.33;78.51;95392.33;106608;1273;22629;-75
2023/12/23 02:13:55;;;;;;;8.40;5.90;;;;;;;0.32;78.40;95396.02;106210;1283;22585;-75
2023/12/23 02:16:23;;;;;;;10.40;5.70;;;;;;;0.31;78.63;95397.17;106264;1284;22574;-76
2023/12/23 02:18:51;;;;;;;9.70;6.20;;;;;;;0.31;78.66;95389.84;106291;1283;25436;-74
2023/12/23 02:21:19;;;;;;;9.30;5.60;;;;;;;0.32;78.32;95394.05;106216;1283;22697;-74
2023/12/23 02:23:47;;;;;;;8.10;4.80;;;;;;;0.31;78.42;95387.91;106311;1273;24232;-74
2023/12/23 02:26:22;;;;;;;7.50;5.10;;;;;;;0.35;78.81;95395.84;106164;1283;22849;-75
2023/12/23 02:28:52;;;;;;;7.20;4.90;;;;;;;0.40;78.93;95390.50;106265;1271;22575;-75
2023/12/23 02:31:21;;;;;;;9.30;5.00;;;;;;;0.43;78.64;95381.36;106353;1268;23949;-75
2023/12/23 02:33:49;;;;;;;6.50;4.40;;;;;;;0.43;78.69;95387.04;106324;1271;25633;-75
2023/12/23 02:36:22;;;;;;;8.60;5.80;;;;;;;0.42;78.70;95391.18;106318;1273;25069;-76
2023/12/23 02:38:50;;;;;;;8.90;5.20;;;;;;;0.42;78.71;95392.48;106257;1270;22674;-76
2023/12/23 02:41:17;;;;;;;7.50;4.80;;;;;;;0.40;78.88;95379.36;106306;1268;23280;-74
2023/12/23 02:43:47;;;;;;;9.20;5.20;;;;;;;0.40;79.16;95378.62;106378;1270;24254;-73
2023/12/23 02:46:15;;;;;;;8.20;4.90;;;;;;;0.41;80.20;95403.89;106321;1271;22543;-74
2023/12/23 02:48:43;;;;;;;9.30;5.20;;;;;;;0.44;81.58;95402.92;106291;1274;22707;-74
2023/12/23 02:51:11;;;;;;;7.20;4.40;;;;;;;0.44;83.01;95414.58;106295;1275;22547;-74
2023/12/23 02:53:39;;;;;;;6.50;4.60;;;;;;;0.42;84.07;95410.54;106236;1284;22648;-74
2023/12/23 02:56:08;;;;;;;6.70;4.90;;;;;;;0.38;85.48;95419.83;106277;1284;22559;-74
2023/12/23 02:58:36;;;;;;;8.30;5.00;;;;;;;0.36;86.61;95428.77;106239;1284;24496;-74
2023/12/23 03:01:07;;;;;;;7.10;4.60;;;;;;;0.35;87.24;95423.13;106240;1270;22567;-73
2023/12/23 03:03:36;;;;;;;7.30;4.90;;;;;;;0.31;87.77;95436.76;106285;1261;22553;-76
2023/12/23 03:06:04;;;;;;;7.20;4.60;;;;;;;0.27;87.95;95445.20;106396;1272;22544;-74
2023/12/23 03:08:32;;;;;;;8.00;4.40;;;;;;;0.24;88.42;95430.63;106332;1283;22506;-75
2023/12/23 03:11:00;;;;;;;4.90;3.70;;;;;;;0.23;89.56;95437.38;106434;1283;25382;-74
2023/12/23 03:13:28;;;;;;;5.30;3.90;;;;;;;0.21;90.87;95429.84;106220;1283;26651;-74
2023/12/23 03:15:56;;;;;;;12.30;4.70;;;;;;;0.19;91.69;95431.73;106224;1283;25384;-74
2023/12/23 03:18:24;;;;;;;7.60;5.10;;;;;;;0.11;92.22;95436.05;106294;1271;24306;-74
2023/12/23 03:20:52;;;;;;;6.10;4.40;;;;;;;0.08;92.86;95442.59;106356;1269;25392;-75
2023/12/23 03:23:20;;;;;;;6.00;4.20;;;;;;;0.05;94.02;95446.13;106295;1265;22533;-75
2023/12/23 03:25:49;;;;;;;8.50;4.50;;;;;;;0.01;94.91;95457.16;106295;1270;25427;-74
2023/12/23 03:28:17;;;;;;;6.50;4.20;;;;;;;-0.05;95.34;95466.88;106370;1268;24356;-75
2023/12/23 03:30:45;;;;;;;10.70;4.80;;;;;;;-0.06;96.18;95465.40;106315;1283;24456;-75
2023/12/23 03:33:15;;;;;;;9.00;4.40;;;;;;;-0.11;96.48;95461.89;106311;1271;22543;-74
2023/12/23 03:35:44;;;;;;;5.90;3.90;;;;;;;-0.12;96.69;95468.48;106445;1271;25365;-75
2023/12/23 03:38:12;;;;;;;9.00;5.10;;;;;;;-0.14;96.29;95469.62;106168;1271;24288;-74
2023/12/23 03:40:40;;;;;;;6.20;5.00;;;;;;;-0.14;97.21;95473.92;106330;1283;22533;-74
2023/12/23 03:43:08;;;;;;;5.40;4.70;;;;;;;-0.17;97.60;95485.09;106339;1280;22774;-75
2023/12/23 03:45:35;;;;;;;6.10;4.60;;;;;;;-0.18;98.06;95491.64;106327;1283;25306;-79
2023/12/23 03:48:04;;;;;;;6.00;4.00;;;;;;;-0.19;98.35;95487.11;106401;1269;22533;-75
2023/12/23 03:50:32;;;;;;;7.80;4.90;;;;;;;-0.22;98.25;95488.34;106392;1270;24365;-74
2023/12/23 03:53:00;;;;;;;5.90;4.50;;;;;;;-0.23;98.49;95492.15;106318;1277;25509;-74
2023/12/23 03:55:34;;;;;;;6.70;4.30;;;;;;;-0.20;98.62;95499.89;106227;1279;22544;-75
2023/12/23 03:58:02;;;;;;;7.00;5.20;;;;;;;-0.18;99.07;95513.73;106164;1277;24278;-75
2023/12/23 04:00:31;;;;;;;6.80;4.80;;;;;;;-0.19;98.89;95520.05;106326;1275;23929;-74
2023/12/23 04:02:59;;;;;;;7.00;4.90;;;;;;;-0.20;98.84;95517.57;106380;1277;22543;-75
2023/12/23 04:05:27;;;;;;;5.50;4.50;;;;;;;-0.24;98.85;95518.80;106284;1283;24345;-75
2023/12/23 04:07:55;;;;;;;9.00;5.30;;;;;;;-0.24;98.81;95527.42;106133;1282;22543;-75
2023/12/23 04:10:23;;;;;;;7.10;4.80;;;;;;;-0.22;98.72;95531.15;106161;1278;23896;-75
2023/12/23 04:12:51;;;;;;;8.90;5.00;;;;;;;-0.22;98.34;95531.31;106080;1274;22680;-75
2023/12/23 04:15:19;;;;;;;6.40;4.50;;;;;;;-0.23;97.84;95527.20;106140;1259;24324;-73
2023/12/23 04:17:47;;;;;;;7.00;4.90;;;;;;;-0.26;97.66;95529.14;106303;1283;22540;-74
2023/12/23 04:20:15;;;;;;;8.80;5.20;;;;;;;-0.26;97.62;95532.21;106284;1268;22536;-74
2023/12/23 04:22:48;;;;;;;9.30;5.50;;;;;;;-0.24;97.13;95539.91;106160;1283;25402;-74
2023/12/23 04:25:17;;;;;;;7.10;4.90;;;;;;;-0.27;96.98;95547.41;106201;1284;22561;-74
2023/12/23 04:27:51;;;;;;;8.10;5.00;;;;;;;-0.27;96.91;95561.92;106297;1284;24376;-74
2023/12/23 04:30:20;;;;;;;6.20;4.70;;;;;;;-0.29;96.98;95565.33;106389;1279;22551;-74
2023/12/23 04:32:49;;;;;;;8.50;5.00;;;;;;;-0.28;97.04;95576.02;106252;1283;23959;-73
2023/12/23 04:35:17;;;;;;;6.40;4.20;;;;;;;-0.27;96.91;95590.50;106243;1284;26691;-73
2023/12/23 04:37:46;;;;;;;7.30;4.00;;;;;;;-0.30;97.01;95582.17;106225;1280;24099;-74
2023/12/23 04:40:15;;;;;;;6.40;4.20;;;;;;;-0.29;97.06;95598.95;106256;1276;24383;-74
2023/12/23 04:42:44;;;;;;;7.40;4.70;;;;;;;-0.27;97.06;95598.16;106303;1281;24354;-74
2023/12/23 04:45:12;;;;;;;6.70;4.30;;;;;;;-0.25;96.96;95613.02;106217;1282;22551;-73
2023/12/23 04:47:40;;;;;;;5.80;4.40;;;;;;;-0.26;96.67;95614.63;106265;1269;22543;-73
2023/12/23 04:50:08;;;;;;;7.20;4.60;;;;;;;-0.26;96.81;95621.56;106251;1283;22544;-75
2023/12/23 04:52:36;;;;;;;6.20;4.20;;;;;;;-0.26;96.98;95631.67;106217;1283;22840;-74
2023/12/23 04:55:05;;;;;;;6.60;4.50;;;;;;;-0.26;96.62;95631.23;106179;1284;24715;-73
2023/12/23 04:57:34;;;;;;;7.40;4.90;;;;;;;-0.26;96.39;95638.13;106313;1268;22564;-74
2023/12/23 05:00:05;;;;;;;7.20;4.80;;;;;;;-0.30;96.25;95651.77;106199;1277;24023;-76
2023/12/23 05:02:34;;;;;;;6.70;4.40;;;;;;;-0.30;95.89;95659.66;106309;1271;24367;-76
2023/12/23 05:05:02;;;;;;;7.90;4.30;;;;;;;-0.29;95.44;95657.85;106280;1276;22921;-74
2023/12/23 05:07:30;;;;;;;9.20;4.90;;;;;;;-0.31;94.73;95666.98;106255;1271;24447;-73
2023/12/23 05:09:58;;;;;;;6.10;4.20;;;;;;;-0.33;94.28;95664.04;106256;1271;22536;-75
2023/12/23 05:12:26;;;;;;;6.40;4.40;;;;;;;-0.34;94.13;95678.61;106303;1270;25439;-74
2023/12/23 05:14:54;;;;;;;8.20;6.90;;;;;;;-0.33;93.28;95687.69;106298;1279;22737;-74
2023/12/23 05:17:22;;;;;;;13.00;11.70;;;;;;;-0.35;92.44;95712.44;106209;1283;25378;-74
2023/12/23 05:19:50;;;;;;;9.90;8.80;;;;;;;-0.38;92.15;95721.98;106229;1277;24205;-75
2023/12/23 05:22:18;;;;;;;8.20;5.80;;;;;;;-0.37;92.03;95721.61;106244;1270;24290;-76
2023/12/23 05:24:48;;;;;;;8.40;4.10;;;;;;;-0.36;91.02;95738.70;106233;1283;26677;-75
2023/12/23 05:27:17;;;;;;;7.20;4.00;;;;;;;-0.36;90.22;95742.83;106165;1271;26673;-74
2023/12/23 05:29:45;;;;;;;6.70;4.10;;;;;;;-0.38;89.87;95757.45;106187;1264;22533;-74
2023/12/23 05:32:13;;;;;;;6.10;4.10;;;;;;;-0.38;89.30;95758.93;106254;1271;25393;-75
2023/12/23 05:34:41;;;;;;;5.30;3.70;;;;;;;-0.36;88.41;95762.40;106268;1283;24239;-74
2023/12/23 05:37:09;;;;;;;5.90;3.70;;;;;;;-0.36;88.28;95771.62;106175;1273;24474;-74
2023/12/23 05:39:38;;;;;;;9.00;5.00;;;;;;;-0.37;87.76;95775.80;106265;1277;25304;-75
2023/12/23 05:42:06;;;;;;;7.40;4.30;;;;;;;-0.41;87.83;95795.73;106219;1283;23897;-74
2023/12/23 05:44:34;;;;;;;5.10;3.90;;;;;;;-0.41;87.20;95787.95;106235;1284;24314;-75
2023/12/23 05:47:02;;;;;;;5.60;4.10;;;;;;;-0.42;87.17;95802.04;106280;1283;22547;-75
2023/12/23 05:49:30;;;;;;;8.00;5.60;;;;;;;-0.41;86.01;95817.70;106222;1276;25501;-75
2023/12/23 05:51:58;;;;;;;10.90;7.00;;;;;;;-0.44;85.63;95831.43;106256;1278;22642;-75
2023/12/23 05:54:26;;;;;;;11.20;7.00;;;;;;;-0.53;87.08;95831.71;106344;1268;24239;-74
2023/12/23 05:56:54;;;;;;;10.80;7.90;;;;;;;-0.61;87.97;95835.13;106311;1268;23932;-75
2023/12/23 05:59:23;;;;;;;7.40;5.50;;;;;;;-0.63;88.04;95848.30;106324;1271;25504;-74
2023/12/23 06:01:52;;;;;;;9.40;6.30;;;;;;;-0.62;87.27;95859.98;106337;1271;24266;-74
2023/12/23 06:04:20;;;;;;;7.50;4.70;;;;;;;-0.63;85.92;95868.69;106293;1265;23002;-74
2023/12/23 06:06:48;;;;;;;8.40;4.60;;;;;;;-0.67;85.65;95870.18;106267;1283;24068;-74
2023/12/23 06:09:17;;;;;;;6.30;4.20;;;;;;;-0.69;84.95;95869.09;106236;1268;26662;-74
2023/12/23 06:11:44;;;;;;;6.10;4.80;;;;;;;-0.71;83.34;95894.87;106494;1271;22621;-75
2023/12/23 06:14:13;;;;;;;6.10;3.70;;;;;;;-0.69;82.62;95879.62;106160;1274;22763;-74
2023/12/23 06:16:41;;;;;;;5.10;3.50;;;;;;;-0.70;82.13;95891.00;106180;1271;22550;-75
2023/12/23 06:19:09;;;;;;;6.50;4.30;;;;;;;-0.72;82.33;95888.11;106239;1278;25731;-75
2023/12/23 06:21:37;;;;;;;6.60;3.40;;;;;;;-0.78;82.72;95894.02;106363;1283;22558;-74
2023/12/23 06:24:05;;;;;;;6.40;4.20;;;;;;;-0.81;82.94;95890.59;106234;1271;22539;-75
2023/12/23 06:26:33;;;;;;;7.10;3.40;;;;;;;-0.83;82.61;95899.13;106214;1268;23936;-74
2023/12/23 06:29:02;;;;;;;6.40;3.30;;;;;;;-0.84;82.63;95907.81;106201;1271;23150;-75
2023/12/23 06:31:30;;;;;;;5.00;3.70;;;;;;;-0.82;82.90;95913.94;106216;1270;22563;-76
2023/12/23 06:33:59;;;;;;;7.80;3.80;;;;;;;-0.83;82.97;95917.32;106242;1283;23101;-74
2023/12/23 06:36:27;;;;;;;5.60;3.70;;;;;;;-0.87;83.23;95915.87;106216;1283;22756;-74
2023/12/23 06:38:55;;;;;;;7.40;4.20;;;;;;;-0.92;83.42;95920.81;106206;1284;22568;-74
2023/12/23 06:41:23;;;;;;;5.80;3.80;;;;;;;-0.96;83.64;95924.38;106365;1262;24212;-74
2023/12/23 06:43:51;;;;;;;5.80;3.40;;;;;;;-0.95;83.53;95936.37;106219;1280;25368;-74
2023/12/23 06:46:20;;;;;;;6.20;3.80;;;;;;;-0.95;83.12;95936.21;106224;1270;25439;-74
2023/12/23 06:48:48;;;;;;;5.40;3.90;;;;;;;-0.99;82.93;95944.75;106190;1283;26646;-74
2023/12/23 06:51:16;;;;;;;6.70;3.80;;;;;;;-1.02;82.89;95947.52;106220;1268;22547;-74
2023/12/23 06:53:44;;;;;;;7.20;4.40;;;;;;;-1.05;82.93;95953.52;106273;1271;22643;-73
2023/12/23 06:56:13;;;;;;;5.90;4.30;;;;;;;-1.05;82.59;95964.65;106200;1273;22564;-75
2023/12/23 06:58:42;;;;;;;7.40;4.80;;;;;;;-1.05;82.33;95965.34;106267;1268;22545;-75
2023/12/23 07:01:10;;;;;;;8.60;4.40;;;;;;;-1.02;81.85;95978.02;106285;1275;22541;-76
2023/12/23 07:03:41;;;;;;;7.50;5.10;;;;;;;-1.03;81.73;95971.95;106292;1269;22547;-75
2023/12/23 07:06:12;;;;;;;9.20;6.40;;;;;;;-1.04;81.68;95963.38;106306;1271;24270;-75
2023/12/23 07:08:40;;;;;;;11.50;7.80;;;;;;;-1.07;81.99;95970.73;106239;1268;23655;-73
2023/12/23 07:11:10;;;;;;;7.70;6.70;;;;;;;-1.07;82.03;95980.58;106316;1271;22492;-74
2023/12/23 07:13:39;;;;;;;8.50;6.30;;;;;;;-1.07;82.41;95980.41;106408;1268;24242;-76
2023/12/23 07:16:07;;;;;;;8.40;6.00;;;;;;;-1.04;82.71;95979.61;106326;1268;24254;-74
2023/12/23 07:18:35;;;;;;;10.70;6.70;;;;;;;-0.99;82.93;95986.09;106375;1283;22571;-76
2023/12/23 07:21:03;;;;;;;8.00;6.00;;;;;;;-0.96;83.41;95990.78;106326;1271;25281;-75
2023/12/23 07:23:31;;;;;;;7.80;6.30;;;;;;;-0.93;83.89;95997.80;106288;1268;22556;-75
2023/12/23 07:26:00;;;;;;;7.80;5.10;;;;;;;-0.89;84.43;96012.17;106305;1283;23283;-75
2023/12/23 07:28:29;;;;;;;16.90;13.30;;;;;;;-0.85;85.24;96008.18;106123;1279;25417;-75
2023/12/23 07:30:57;;;;;;;15.20;11.00;;;;;;;-0.80;85.61;96013.14;106257;1277;22546;-75
2023/12/23 07:33:25;;;;;;;13.90;11.70;;;;;;;-0.78;85.49;96003.51;106294;1271;24432;-75
2023/12/23 07:35:53;;;;;;;8.50;5.50;;;;;;;-0.78;85.29;96010.27;106301;1271;23896;-75
2023/12/23 07:38:21;;;;;;;6.50;5.00;;;;;;;-0.80;85.18;96013.50;106306;1283;23936;-74
2023/12/23 07:40:49;;;;;;;5.80;4.60;;;;;;;-0.83;85.10;96024.40;106332;1271;23172;-75
2023/12/23 07:43:17;;;;;;;9.60;5.30;;;;;;;-0.86;84.78;96016.43;106322;1271;24333;-73
2023/12/23 07:45:47;;;;;;;7.70;5.00;;;;;;;-0.86;84.52;96026.33;106252;1271;24083;-73
2023/12/23 07:48:15;;;;;;;5.90;4.50;;;;;;;-0.86;84.11;96041.30;106307;1271;25998;-74
2023/12/23 07:50:43;;;;;;;6.10;4.70;;;;;;;-0.87;83.94;96021.15;106326;1274;22542;-74
2023/12/23 07:53:11;;;;;;;8.60;5.30;;;;;;;-0.88;83.87;96018.45;106167;1271;24226;-74
2023/12/23 07:55:39;;;;;;;5.50;4.50;;;;;;;-0.87;83.44;96018.25;106220;1283;22809;-74
2023/12/23 07:58:07;;;;;;;8.40;7.10;;;;;;;-0.85;83.71;96029.12;106265;1283;23896;-75
2023/12/23 08:00:35;;;;;;;6.50;5.10;;;;;;;-0.81;83.60;96033.51;106198;1269;24273;-76
2023/12/23 08:03:03;;;;;;;7.40;4.50;;;;;;;-0.77;83.03;96028.56;106165;1283;25375;-74
2023/12/23 08:05:33;;;;;;;5.20;4.10;;;;;;;-0.81;82.45;96022.60;106113;1273;23124;-74
2023/12/23 08:08:02;;;;;;;9.20;6.50;;;;;;;-0.80;82.19;96028.41;106288;1272;25501;-74
2023/12/23 08:10:30;;;;;;;13.70;9.70;;;;;;;-0.79;82.52;96034.98;106253;1271;22569;-76
2023/12/23 08:12:58;;;;;;;21.10;12.50;;;;;;;-0.74;83.09;96032.20;106211;1277;25386;-75
2023/12/23 08:15:26;;;;;;;7.40;5.60;;;;;;;-0.67;82.71;96044.65;106251;1268;24269;-77
2023/12/23 08:17:54;;;;;;;7.70;5.40;;;;;;;-0.63;82.56;96032.30;106238;1283;22786;-73
2023/12/23 08:20:22;;;;;;;6.80;4.90;;;;;;;-0.60;82.16;96040.65;106284;1271;24202;-75
2023/12/23 08:22:50;;;;;;;7.50;5.80;;;;;;;-0.62;81.49;96039.11;106202;1271;22543;-74
2023/12/23 08:25:18;;;;;;;6.50;4.90;;;;;;;-0.61;81.70;96035.30;106353;1268;23242;-73
2023/12/23 08:27:46;;;;;;;6.50;4.40;;;;;;;-0.59;82.36;96033.50;106232;1283;22541;-74
2023/12/23 08:30:14;;;;;;;6.20;4.50;;;;;;;-0.48;82.61;96036.66;106202;1281;22693;-74
2023/12/23 08:32:43;;;;;;;7.00;5.00;;;;;;;-0.40;82.34;96043.34;106255;1268;22543;-74
2023/12/23 08:35:12;;;;;;;9.00;6.20;;;;;;;-0.38;81.98;96052.70;106314;1280;25252;-74
2023/12/23 08:37:40;;;;;;;8.40;6.90;;;;;;;-0.37;81.94;96038.93;106557;1279;23907;-74
2023/12/23 08:40:09;;;;;;;8.60;6.60;;;;;;;-0.36;81.71;96051.63;106272;1271;22776;-74
2023/12/23 08:42:37;;;;;;;9.50;7.40;;;;;;;-0.38;81.47;96054.45;106250;1272;22555;-76
2023/12/23 08:45:05;;;;;;;7.20;5.70;;;;;;;-0.40;81.54;96058.27;106403;1283;24523;-74
2023/12/23 08:47:34;;;;;;;8.30;6.40;;;;;;;-0.37;81.83;96044.33;106353;1283;25427;-74
2023/12/23 08:50:02;;;;;;;5.90;4.80;;;;;;;-0.30;81.88;96039.36;106389;1271;23029;-76
2023/12/23 08:52:32;;;;;;;10.90;7.80;;;;;;;-0.28;81.68;96044.22;106588;1283;22548;-75
2023/12/23 08:55:00;;;;;;;9.10;7.60;;;;;;;-0.31;81.80;96030.58;106393;1278;22540;-77
2023/12/23 08:57:28;;;;;;;8.20;6.10;;;;;;;-0.28;81.27;96035.50;106269;1281;22550;-74
2023/12/23 08:59:56;;;;;;;7.20;5.60;;;;;;;-0.29;80.03;96048.67;106205;1271;24276;-75
2023/12/23 09:02:24;;;;;;;7.90;5.00;;;;;;;-0.29;80.35;96033.42;106233;1268;25366;-76
2023/12/23 09:04:55;;;;;;;8.00;6.40;;;;;;;-0.30;80.88;96039.79;106184;1261;24402;-73
2023/12/23 09:07:23;;;;;;;8.60;5.80;;;;;;;-0.26;81.35;96042.15;106433;1269;23927;-75
2023/12/23 09:09:52;;;;;;;8.20;6.20;;;;;;;-0.27;81.07;96046.23;106390;1283;24233;-75
2023/12/23 09:12:20;;;;;;;10.00;7.90;;;;;;;-0.31;80.77;96048.95;106232;1284;23942;-76
2023/12/23 09:14:49;;;;;;;9.10;7.00;;;;;;;-0.33;80.57;96055.47;106217;1280;22557;-76
2023/12/23 09:17:17;;;;;;;12.40;7.90;;;;;;;-0.34;80.74;96052.73;106366;1281;25409;-75
2023/12/23 09:19:45;;;;;;;8.70;6.70;;;;;;;-0.38;81.06;96046.09;106420;1268;24202;-77
2023/12/23 09:22:13;;;;;;;7.60;6.40;;;;;;;-0.34;81.41;96038.76;106275;1272;24250;-75
2023/12/23 09:24:43;;;;;;;6.50;5.10;;;;;;;-0.28;81.57;96036.23;106209;1273;25340;-75
2023/12/23 09:27:11;;;;;;;7.50;5.70;;;;;;;-0.24;81.14;96042.40;106231;1268;23388;-74
2023/12/23 09:29:39;;;;;;;8.80;6.10;;;;;;;-0.22;80.86;96049.59;106264;1283;22547;-76
2023/12/23 09:32:07;;;;;;;9.90;6.00;;;;;;;-0.20;80.56;96051.27;106258;1271;25260;-75
2023/12/23 09:34:35;;;;;;;11.50;6.50;;;;;;;-0.19;80.51;96051.00;106234;1271;25482;-75
2023/12/23 09:37:03;;;;;;;11.80;9.10;;;;;;;-0.18;80.44;96052.63;106195;1271;22556;-76
2023/12/23 09:39:31;;;;;;;9.30;7.00;;;;;;;-0.19;80.42;96056.02;106233;1269;22645;-74
2023/12/23 09:41:59;;;;;;;10.10;8.30;;;;;;;-0.17;80.28;96056.65;106183;1273;24072;-74
2023/12/23 09:44:27;;;;;;;19.50;13.70;;;;;;;-0.17;80.51;96046.95;106226;1269;25186;-75
2023/12/23 09:46:55;;;;;;;9.00;6.80;;;;;;;-0.14;80.22;96039.11;106251;1271;24245;-75
2023/12/23 09:49:24;;;;;;;12.30;10.30;;;;;;;-0.15;80.01;96045.24;106228;1281;22592;-75
2023/12/23 09:51:55;;;;;;;19.90;18.00;;;;;;;-0.15;79.81;96041.27;106220;1271;103322;-75
2023/12/23 09:54:26;;;;;;;11.60;8.40;;;;;;;-0.17;79.94;96036.63;106251;1269;24712;-75
2023/12/23 09:56:54;;;;;;;12.50;9.10;;;;;;;-0.16;79.89;96046.48;106213;1284;25361;-75
2023/12/23 09:59:23;;;;;;;13.20;9.80;;;;;;;-0.18;80.46;96031.02;106484;1270;22809;-75
2023/12/23 10:01:51;;;;;;;13.20;9.60;;;;;;;-0.16;80.96;96036.35;106231;1284;23926;-75
2023/12/23 10:04:19;;;;;;;9.50;6.10;;;;;;;-0.13;80.85;96031.15;106201;1273;22783;-73
2023/12/23 10:06:47;;;;;;;8.90;6.60;;;;;;;-0.14;80.35;96034.34;106264;1283;25432;-75
2023/12/23 10:09:15;;;;;;;12.60;9.70;;;;;;;-0.19;80.40;96026.01;106382;1271;24373;-74
2023/12/23 10:11:43;;;;;;;12.60;10.80;;;;;;;-0.19;80.60;96024.20;106325;1283;25371;-76
2023/12/23 10:14:12;;;;;;;15.20;11.50;;;;;;;-0.20;80.88;96024.31;106134;1271;22702;-76
2023/12/23 10:16:41;;;;;;;14.80;10.30;;;;;;;-0.20;80.99;96018.02;106222;1268;22787;-75
2023/12/23 10:19:15;;;;;;;14.80;10.30;;;;;;;-0.18;81.45;96017.20;106249;1274;24358;-75
2023/12/23 10:21:43;;;;;;;12.30;10.60;;;;;;;-0.14;81.50;96001.77;106217;1271;25543;-75
2023/12/23 10:24:11;;;;;;;10.90;8.00;;;;;;;-0.15;81.34;96003.27;106195;1271;22547;-76
2023/12/23 10:26:41;;;;;;;14.70;8.60;;;;;;;-0.12;81.24;95990.54;106256;1268;24263;-75
2023/12/23 10:29:10;;;;;;;14.50;9.10;;;;;;;-0.13;81.16;95974.77;106223;1271;25393;-76
2023/12/23 10:31:41;;;;;;;11.10;8.90;;;;;;;-0.14;81.08;95976.31;106229;1280;22542;-75
2023/12/23 10:34:12;;;;;;;15.70;9.90;;;;;;;-0.14;80.92;95962.54;106252;1270;25395;-75
2023/12/23 10:36:42;;;;;;;8.90;6.80;;;;;;;-0.13;80.99;95964.70;106216;1271;22550;-75
2023/12/23 10:39:31;;;;;;;13.30;8.70;;;;;;;-0.08;81.69;95957.41;106301;1283;22643;-75
2023/12/23 10:42:10;;;;;;;10.30;7.80;;;;;;;-0.04;81.38;95964.30;106198;1283;22550;-76
2023/12/23 10:44:41;;;;;;;14.70;9.40;;;;;;;-0.04;81.22;95959.91;106214;1278;25579;-77
2023/12/23 10:47:11;;;;;;;14.70;10.90;;;;;;;-0.04;81.02;95960.55;106220;1269;26646;-76
2023/12/23 10:49:40;;;;;;;15.40;12.40;;;;;;;-0.03;80.69;95958.11;106266;1274;22557;-75
2023/12/23 10:52:11;;;;;;;12.60;9.30;;;;;;;-0.04;80.89;95955.83;106381;1284;22551;-75
2023/12/23 10:54:39;;;;;;;12.50;9.00;;;;;;;-0.01;81.17;95938.44;106355;1284;22678;-75
2023/12/23 10:57:09;;;;;;;11.00;8.70;;;;;;;0.04;81.35;95940.30;106300;1281;24273;-77
2023/12/23 10:59:38;;;;;;;16.50;11.50;;;;;;;0.07;81.18;95933.83;106246;1284;23155;-74
2023/12/23 11:02:13;;;;;;;14.20;8.90;;;;;;;0.07;80.72;95936.20;106238;1283;22799;-76
2023/12/23 11:04:44;;;;;;;17.50;11.60;;;;;;;0.04;80.59;95931.58;106214;1271;22545;-76
2023/12/23 11:07:16;;;;;;;13.90;9.80;;;;;;;0.02;80.56;95925.45;106613;1277;22666;-75
2023/12/23 11:09:48;;;;;;;14.60;11.60;;;;;;;-0.00;80.45;95921.34;106290;1271;24821;-76
2023/12/23 11:12:17;;;;;;;15.50;11.40;;;;;;;-0.01;80.25;95917.00;106248;1278;25435;-75
2023/12/23 11:14:46;;;;;;;19.80;14.40;;;;;;;-0.01;80.07;95913.67;106299;1279;22925;-75
2023/12/23 11:17:31;;;;;;;13.30;9.70;;;;;;;0.02;80.07;95911.16;106625;1281;25236;-75
2023/12/23 11:20:03;;;;;;;12.20;10.20;;;;;;;0.07;80.18;95905.65;106422;1283;23375;-75
2023/12/23 11:22:38;;;;;;;16.20;12.20;;;;;;;0.10;79.76;95898.52;106266;1270;26518;-75
2023/12/23 11:25:36;;;;;;;19.10;15.70;;;;;;;0.11;79.58;95897.08;106316;1274;23486;-75
2023/12/23 11:28:09;;;;;;;19.20;14.40;;;;;;;0.10;79.46;95898.94;106213;1283;22543;-76
2023/12/23 11:30:47;;;;;;;14.40;11.30;;;;;;;0.11;79.25;95906.66;106371;1284;25505;-76
2023/12/23 11:33:23;;;;;;;14.50;10.90;;;;;;;0.10;78.70;95911.80;106421;1268;25242;-76